Time;durP1;ratioP1;P1;durP2;ratioP2;P2;SDS_P1;SDS_P2;PMS_P1;PMS_P2;Temp;Humidity;BMP_temperature;BMP_pressure;BME280_temperature;BME280_humidity;BME280_pressure;Samples;Min_cycle;Max_cycle;Signal;HPM_P1;HPM_P2
2023/06/29 00:00:57;;;;;;;;;;;;;;;24.09;45.91;100569.98;104262;1294;70038;-86
2023/06/29 00:03:22;;;;;;;;;;;;;;;24.09;45.89;100567.72;104400;1294;68113;-87
2023/06/29 00:05:48;;;;;;;;;;;;;;;24.09;45.82;100565.45;104360;1294;70006;-87
2023/06/29 00:08:13;;;;;;;;;;;;;;;24.09;45.83;100567.41;104402;1297;70063;-87
2023/06/29 00:13:15;;;;;;;;;;;;;;;24.08;45.79;100563.97;104568;1294;69912;-86
2023/06/29 00:15:41;;;;;;;;;;;;;;;24.09;45.80;100563.55;104544;1294;70040;-86
2023/06/29 00:18:09;;;;;;;;;;;;;;;24.08;45.87;100560.95;104352;1294;68525;-86
2023/06/29 00:20:35;;;;;;;;;;;;;;;24.08;45.76;100559.98;104344;1297;70021;-87
2023/06/29 00:23:03;;;;;;;;;;;;;;;24.08;45.85;100559.37;104228;1296;68672;-87
2023/06/29 00:25:29;;;;;;;;;;;;;;;24.08;45.84;100555.05;104102;1299;70215;-87
2023/06/29 00:27:54;;;;;;;;;;;;;;;24.08;45.77;100554.54;104259;1296;70032;-87
2023/06/29 00:30:20;;;;;;;;;;;;;;;24.08;45.92;100557.52;104466;1296;68166;-87
2023/06/29 00:32:46;;;;;;;;;;;;;;;24.07;45.96;100556.34;104375;1297;70018;-87
2023/06/29 00:35:12;;;;;;;;;;;;;;;24.07;45.70;100558.05;104267;1297;70009;-87
2023/06/29 00:40:12;;;;;;;;;;;;;;;24.08;45.68;100564.56;104618;1295;69859;-87
2023/06/29 00:42:37;;;;;;;;;;;;;;;24.07;45.87;100561.84;104470;1295;69955;-87
2023/06/29 00:45:03;;;;;;;;;;;;;;;24.07;45.87;100559.43;104351;1303;70202;-87
2023/06/29 00:47:29;;;;;;;;;;;;;;;24.07;45.79;100560.66;104384;1301;69923;-87
2023/06/29 00:49:55;;;;;;;;;;;;;;;24.06;45.76;100564.27;104464;1299;69950;-87
2023/06/29 00:52:20;;;;;;;;;;;;;;;24.06;45.86;100566.42;104297;1301;70009;-87
2023/06/29 00:54:46;;;;;;;;;;;;;;;24.06;46.02;100564.69;104417;1296;74058;-87
2023/06/29 00:57:12;;;;;;;;;;;;;;;24.07;45.88;100563.19;104476;1298;70068;-87
2023/06/29 00:59:38;;;;;;;;;;;;;;;24.06;45.84;100561.70;104252;1294;68204;-87
2023/06/29 01:02:03;;;;;;;;;;;;;;;24.06;45.89;100560.27;104293;1301;70158;-87
2023/06/29 01:04:32;;;;;;;;;;;;;;;24.06;45.81;100558.16;104243;1296;69985;-91
2023/06/29 01:07:00;;;;;;;;;;;;;;;24.05;45.82;100563.46;104473;1294;69912;-87
2023/06/29 01:09:26;;;;;;;;;;;;;;;24.06;45.80;100559.86;104422;1296;69942;-87
2023/06/29 01:11:51;;;;;;;;;;;;;;;24.06;45.79;100555.59;104036;1301;70514;-87
2023/06/29 01:14:17;;;;;;;;;;;;;;;24.05;45.79;100553.02;104341;1296;70027;-87
2023/06/29 01:16:42;;;;;;;;;;;;;;;24.05;45.68;100549.17;104195;1294;70134;-88
2023/06/29 01:19:09;;;;;;;;;;;;;;;24.05;45.95;100545.07;104273;1295;70276;-87
2023/06/29 01:21:42;;;;;;;;;;;;;;;24.05;45.99;100543.52;104460;1299;69857;-87
2023/06/29 01:24:08;;;;;;;;;;;;;;;24.05;45.78;100538.02;104196;1296;69953;-87
2023/06/29 01:26:33;;;;;;;;;;;;;;;24.05;45.73;100534.64;104503;1300;69983;-87
2023/06/29 01:28:59;;;;;;;;;;;;;;;24.05;45.91;100536.28;104492;1295;70202;-88
2023/06/29 01:31:33;;;;;;;;;;;;;;;24.05;45.80;100529.64;104319;1296;70041;-92
2023/06/29 01:33:58;;;;;;;;;;;;;;;24.04;45.90;100528.46;104477;1296;70094;-87
2023/06/29 01:36:25;;;;;;;;;;;;;;;24.04;46.01;100527.70;104527;1296;70034;-87
2023/06/29 01:38:56;;;;;;;;;;;;;;;24.04;45.83;100533.35;104220;1298;70090;-87
2023/06/29 01:41:21;;;;;;;;;;;;;;;24.04;45.83;100533.36;104320;1298;69586;-87
2023/06/29 01:43:47;;;;;;;;;;;;;;;24.04;45.94;100537.73;104271;1296;68232;-87
2023/06/29 01:46:12;;;;;;;;;;;;;;;24.04;45.90;100535.77;104266;1297;68353;-87
2023/06/29 01:48:38;;;;;;;;;;;;;;;24.04;45.83;100536.90;104335;1300;70011;-86
2023/06/29 01:51:03;;;;;;;;;;;;;;;24.04;46.03;100534.79;104333;1298;70038;-87
2023/06/29 01:53:29;;;;;;;;;;;;;;;24.03;45.92;100534.24;104312;1295;70089;-87
2023/06/29 01:55:54;;;;;;;;;;;;;;;24.03;45.85;100537.94;104361;1295;68813;-87
2023/06/29 02:00:53;;;;;;;;;;;;;;;24.03;45.92;100538.36;104442;1298;72523;-87
2023/06/29 02:03:19;;;;;;;;;;;;;;;24.03;45.93;100538.91;104340;1297;68155;-87
2023/06/29 02:05:45;;;;;;;;;;;;;;;24.03;45.87;100538.20;104452;1296;70036;-86
2023/06/29 02:08:10;;;;;;;;;;;;;;;24.03;45.77;100539.33;104432;1296;70059;-86
2023/06/29 02:10:35;;;;;;;;;;;;;;;24.03;46.10;100535.73;104550;1296;70171;-87
2023/06/29 02:13:01;;;;;;;;;;;;;;;24.03;45.83;100531.93;104308;1296;69994;-87
2023/06/29 02:15:26;;;;;;;;;;;;;;;24.03;45.85;100530.84;104380;1296;68469;-87
2023/06/29 02:17:52;;;;;;;;;;;;;;;24.02;45.90;100529.31;104332;1297;70163;-86
2023/06/29 02:20:18;;;;;;;;;;;;;;;24.02;45.79;100529.31;104381;1295;70037;-87
2023/06/29 02:22:43;;;;;;;;;;;;;;;24.02;45.89;100527.88;104321;1303;70100;-87
2023/06/29 02:27:51;;;;;;;;;;;;;;;24.02;45.74;100528.75;104363;1297;70067;-86
2023/06/29 02:30:17;;;;;;;;;;;;;;;24.02;45.92;100535.95;104142;1302;70089;-86
2023/06/29 02:32:42;;;;;;;;;;;;;;;24.01;45.92;100537.90;104131;1297;70136;-86
2023/06/29 02:35:08;;;;;;;;;;;;;;;24.01;45.92;100534.58;104114;1298;70047;-87
2023/06/29 02:37:34;;;;;;;;;;;;;;;24.01;45.68;100530.25;104438;1296;69937;-87
2023/06/29 02:39:59;;;;;;;;;;;;;;;24.01;45.85;100525.42;104158;1297;70035;-86
2023/06/29 02:42:24;;;;;;;;;;;;;;;24.01;45.91;100521.55;104162;1297;68124;-87
2023/06/29 02:44:50;;;;;;;;;;;;;;;24.01;45.85;100520.02;104408;1296;69543;-87
2023/06/29 02:47:15;;;;;;;;;;;;;;;24.00;45.75;100520.54;104264;1298;67871;-87
2023/06/29 02:49:41;;;;;;;;;;;;;;;24.01;45.92;100518.44;104478;1297;70062;-87
2023/06/29 02:54:46;;;;;;;;;;;;;;;23.99;45.68;100523.48;104271;1300;67849;-87
2023/06/29 02:57:12;;;;;;;;;;;;;;;23.98;45.88;100523.23;104292;1297;68737;-86
2023/06/29 02:59:37;;;;;;;;;;;;;;;23.98;45.98;100522.67;104352;1297;70093;-87
2023/06/29 03:02:03;;;;;;;;;;;;;;;23.98;45.79;100526.33;104349;1297;70042;-87
2023/06/29 03:04:29;;;;;;;;;;;;;;;23.98;45.92;100528.17;104370;1297;70105;-87
2023/06/29 03:06:54;;;;;;;;;;;;;;;23.98;45.94;100525.60;104208;1297;69961;-87
2023/06/29 03:09:20;;;;;;;;;;;;;;;23.97;45.83;100530.23;104355;1297;70035;-87
2023/06/29 03:11:45;;;;;;;;;;;;;;;23.97;45.91;100533.47;104327;1298;69972;-87
2023/06/29 03:14:11;;;;;;;;;;;;;;;23.97;46.10;100533.41;104353;1297;69071;-87
2023/06/29 03:16:38;;;;;;;;;;;;;;;23.97;45.93;100530.79;104403;1298;70096;-87
2023/06/29 03:19:14;;;;;;;;;;;;;;;23.96;45.87;100536.44;104296;1297;70032;-92
2023/06/29 03:21:39;;;;;;;;;;;;;;;23.95;45.88;100537.89;104251;1298;70073;-87
2023/06/29 03:24:05;;;;;;;;;;;;;;;23.95;45.89;100533.74;104423;1297;70022;-87
2023/06/29 03:26:30;;;;;;;;;;;;;;;23.94;45.85;100532.67;104302;1299;70114;-87
2023/06/29 03:28:56;;;;;;;;;;;;;;;23.93;45.90;100533.81;104222;1299;70091;-87
2023/06/29 03:31:21;;;;;;;;;;;;;;;23.93;45.72;100532.21;104382;1297;69992;-87
2023/06/29 03:33:47;;;;;;;;;;;;;;;23.92;45.74;100536.39;104205;1299;70022;-86
2023/06/29 03:36:12;;;;;;;;;;;;;;;23.90;45.81;100533.38;104341;1298;70080;-87
2023/06/29 03:38:38;;;;;;;;;;;;;;;23.89;45.85;100531.23;104222;1303;69952;-87
2023/06/29 03:41:03;;;;;;;;;;;;;;;23.88;45.91;100532.38;104369;1297;68832;-87
2023/06/29 03:43:29;;;;;;;;;;;;;;;23.86;45.88;100532.85;104251;1300;75515;-87
2023/06/29 03:48:31;;;;;;;;;;;;;;;23.84;45.86;100527.95;104330;1293;70033;-88
2023/06/29 03:50:56;;;;;;;;;;;;;;;23.82;45.81;100526.08;104273;1297;70212;-86
2023/06/29 03:53:22;;;;;;;;;;;;;;;23.81;45.86;100523.52;104362;1299;68447;-87
2023/06/29 03:55:48;;;;;;;;;;;;;;;23.80;45.75;100526.52;104359;1300;69663;-86
2023/06/29 03:58:14;;;;;;;;;;;;;;;23.79;45.75;100525.89;104479;1297;70032;-86
2023/06/29 04:00:39;;;;;;;;;;;;;;;23.78;45.82;100521.23;104245;1300;69846;-87
2023/06/29 04:03:05;;;;;;;;;;;;;;;23.78;45.88;100524.16;104396;1297;68498;-87
2023/06/29 04:05:31;;;;;;;;;;;;;;;23.77;45.74;100524.33;104455;1300;70116;-87
2023/06/29 04:07:57;;;;;;;;;;;;;;;23.76;45.73;100524.85;104367;1297;68484;-86
2023/06/29 04:10:23;;;;;;;;;;;;;;;23.76;45.75;100524.08;104384;1302;67967;-86
2023/06/29 04:15:20;;;;;;;;;;;;;;;23.75;45.67;100513.20;103855;1297;554956;-85
2023/06/29 04:17:45;;;;;;;;;;;;;;;23.74;45.78;100517.78;104194;1297;70209;-86
2023/06/29 04:20:11;;;;;;;;;;;;;;;23.74;45.66;100517.02;104352;1296;70080;-85
2023/06/29 04:22:36;;;;;;;;;;;;;;;23.72;45.69;100517.07;104336;1297;68974;-86
2023/06/29 04:25:02;;;;;;;;;;;;;;;23.72;45.72;100517.89;104446;1297;67849;-86
2023/06/29 04:27:29;;;;;;;;;;;;;;;23.72;45.79;100522.56;104212;1297;70153;-85
2023/06/29 04:29:55;;;;;;;;;;;;;;;23.72;45.60;100524.21;104152;1297;70020;-85
2023/06/29 04:32:20;;;;;;;;;;;;;;;23.72;45.64;100528.28;104146;1297;70094;-86
2023/06/29 04:34:47;;;;;;;;;;;;;;;23.71;45.73;100534.86;104196;1297;67949;-86
2023/06/29 04:37:13;;;;;;;;;;;;;;;23.70;45.70;100530.81;104180;1297;70022;-86
2023/06/29 04:39:39;;;;;;;;;;;;;;;23.71;45.87;100534.52;104078;1297;70146;-86
2023/06/29 04:42:10;;;;;;;;;;;;;;;23.71;45.85;100531.52;104263;1297;68316;-86
2023/06/29 04:44:35;;;;;;;;;;;;;;;23.71;45.79;100530.75;104189;1297;70075;-86
2023/06/29 04:47:01;;;;;;;;;;;;;;;23.72;45.84;100528.47;104118;1297;70032;-86
2023/06/29 04:49:31;;;;;;;;;;;;;;;23.72;45.83;100521.34;104261;1297;70262;-86
2023/06/29 04:51:59;;;;;;;;;;;;;;;23.72;45.77;100516.11;104133;1297;70034;-86
2023/06/29 04:54:26;;;;;;;;;;;;;;;23.72;45.77;100515.64;104128;1297;70160;-85
2023/06/29 04:56:51;;;;;;;;;;;;;;;23.73;45.79;100516.25;104135;1297;68041;-86
2023/06/29 04:59:17;;;;;;;;;;;;;;;23.74;45.75;100526.92;104413;1297;70043;-86
2023/06/29 05:01:42;;;;;;;;;;;;;;;23.73;45.71;100530.73;104340;1297;70129;-86
2023/06/29 05:04:08;;;;;;;;;;;;;;;23.74;45.67;100536.22;104457;1297;70164;-86
2023/06/29 05:06:33;;;;;;;;;;;;;;;23.71;45.67;100537.23;104291;1297;68148;-86
2023/06/29 05:08:59;;;;;;;;;;;;;;;23.68;45.72;100537.52;104424;1297;68059;-86
2023/06/29 05:11:24;;;;;;;;;;;;;;;23.63;45.68;100541.52;104504;1297;70038;-86
2023/06/29 05:13:50;;;;;;;;;;;;;;;23.52;45.81;100543.02;104318;1297;70110;-86
2023/06/29 05:16:16;;;;;;;;;;;;;;;23.39;45.80;100551.39;104537;1297;68065;-86
2023/06/29 05:18:50;;;;;;;;;;;;;;;23.21;45.90;100555.18;104202;1297;70094;-91
2023/06/29 05:21:15;;;;;;;;;;;;;;;23.09;46.17;100557.62;104421;1297;83736;-86
2023/06/29 05:23:41;;;;;;;;;;;;;;;23.00;46.19;100554.14;104629;1297;69974;-87
2023/06/29 05:26:06;;;;;;;;;;;;;;;22.95;46.35;100555.98;104425;1297;67834;-87
2023/06/29 05:28:32;;;;;;;;;;;;;;;22.91;46.40;100556.46;104536;1299;70067;-86
2023/06/29 05:30:58;;;;;;;;;;;;;;;22.89;46.50;100553.39;104474;1297;68431;-87
2023/06/29 05:33:23;;;;;;;;;;;;;;;22.90;46.57;100553.02;104220;1300;73466;-86
2023/06/29 05:35:49;;;;;;;;;;;;;;;22.92;46.63;100549.94;104419;1298;67724;-86
2023/06/29 05:38:14;;;;;;;;;;;;;;;22.91;46.63;100548.05;104200;1298;70042;-86
2023/06/29 05:40:40;;;;;;;;;;;;;;;22.91;46.72;100548.56;104271;1297;68450;-86
2023/06/29 05:43:06;;;;;;;;;;;;;;;22.90;46.70;100550.83;104465;1297;70220;-87
2023/06/29 05:48:11;;;;;;;;;;;;;;;22.89;46.75;100556.38;104452;1297;67858;-86
2023/06/29 05:50:37;;;;;;;;;;;;;;;22.90;46.87;100562.56;104292;1297;70173;-86
2023/06/29 05:53:04;;;;;;;;;;;;;;;22.91;46.83;100564.25;104240;1299;69984;-86
2023/06/29 05:55:29;;;;;;;;;;;;;;;22.91;46.80;100564.10;104204;1299;68110;-86
2023/06/29 05:57:54;;;;;;;;;;;;;;;22.91;46.78;100561.95;104276;1300;68675;-86
2023/06/29 06:00:20;;;;;;;;;;;;;;;22.92;46.79;100556.60;104087;1298;68229;-86
2023/06/29 06:02:45;;;;;;;;;;;;;;;22.92;46.88;100557.63;104258;1298;70106;-86
2023/06/29 06:05:11;;;;;;;;;;;;;;;22.91;46.84;100556.92;104381;1302;70065;-86
2023/06/29 06:07:37;;;;;;;;;;;;;;;22.91;46.83;100552.25;104251;1299;68267;-86
2023/06/29 06:10:03;;;;;;;;;;;;;;;22.94;46.84;100551.88;104143;1300;70032;-86
2023/06/29 06:12:37;;;;;;;;;;;;;;;22.99;46.88;100538.76;104237;1299;67965;-91
2023/06/29 06:15:03;;;;;;;;;;;;;;;23.03;46.81;100536.42;104148;1300;83151;-86
2023/06/29 06:17:28;;;;;;;;;;;;;;;23.05;46.83;100534.97;104157;1301;70057;-86
2023/06/29 06:19:54;;;;;;;;;;;;;;;23.06;46.79;100533.02;104126;1305;70105;-86
2023/06/29 06:22:19;;;;;;;;;;;;;;;23.06;46.78;100536.81;104486;1298;69961;-86
2023/06/29 06:24:45;;;;;;;;;;;;;;;23.06;46.71;100535.89;104272;1299;68664;-86
2023/06/29 06:27:11;;;;;;;;;;;;;;;23.03;46.75;100540.66;104071;1300;70048;-86
2023/06/29 06:29:36;;;;;;;;;;;;;;;23.01;46.80;100538.32;104231;1297;70090;-86
2023/06/29 06:32:02;;;;;;;;;;;;;;;23.00;46.82;100541.46;104176;1297;68159;-85
2023/06/29 06:34:30;;;;;;;;;;;;;;;23.00;46.89;100538.18;104380;1297;70093;-86
2023/06/29 06:36:57;;;;;;;;;;;;;;;23.00;46.82;100532.75;104317;1297;69989;-86
2023/06/29 06:39:32;;;;;;;;;;;;;;;23.00;46.94;100537.16;104364;1297;70003;-91
2023/06/29 06:41:59;;;;;;;;;;;;;;;23.01;46.86;100539.55;104287;1297;70341;-86
2023/06/29 06:44:24;;;;;;;;;;;;;;;23.03;46.86;100539.96;104501;1299;69972;-86
2023/06/29 06:46:50;;;;;;;;;;;;;;;23.05;46.81;100538.36;104597;1297;69981;-86
2023/06/29 06:49:16;;;;;;;;;;;;;;;23.05;46.75;100540.05;104447;1297;70599;-87
2023/06/29 06:51:41;;;;;;;;;;;;;;;23.06;46.86;100538.80;104295;1297;68241;-86
2023/06/29 06:54:07;;;;;;;;;;;;;;;23.08;46.85;100540.19;104274;1297;69956;-86
2023/06/29 06:56:32;;;;;;;;;;;;;;;23.11;46.82;100536.66;104271;1297;70071;-86
2023/06/29 06:58:58;;;;;;;;;;;;;;;23.13;46.87;100534.53;104391;1303;70084;-86
2023/06/29 07:01:24;;;;;;;;;;;;;;;23.16;46.89;100532.72;104295;1298;70031;-86
2023/06/29 07:03:51;;;;;;;;;;;;;;;23.19;46.89;100532.13;104374;1299;69936;-86
2023/06/29 07:06:30;;;;;;;;;;;;;;;23.23;46.77;100533.83;104384;1297;70035;-92
2023/06/29 07:08:56;;;;;;;;;;;;;;;23.26;46.77;100535.08;104358;1300;68258;-85
2023/06/29 07:11:22;;;;;;;;;;;;;;;23.30;46.71;100540.39;104319;1297;70221;-85
2023/06/29 07:13:47;;;;;;;;;;;;;;;23.32;46.75;100540.67;104284;1297;68081;-85
2023/06/29 07:16:13;;;;;;;;;;;;;;;23.33;46.76;100544.77;104401;1297;70011;-86
2023/06/29 07:18:38;;;;;;;;;;;;;;;23.34;46.76;100543.55;104278;1297;70040;-86
2023/06/29 07:21:04;;;;;;;;;;;;;;;23.32;46.82;100544.59;104263;1297;74185;-85
2023/06/29 07:23:29;;;;;;;;;;;;;;;23.31;46.75;100546.91;104255;1297;69721;-85
2023/06/29 07:25:55;;;;;;;;;;;;;;;23.31;46.70;100545.52;104283;1297;70100;-85
2023/06/29 07:28:21;;;;;;;;;;;;;;;23.30;46.65;100546.92;104252;1297;70031;-86
2023/06/29 07:30:46;;;;;;;;;;;;;;;23.25;46.69;100554.55;104337;1297;70017;-85
2023/06/29 07:33:21;;;;;;;;;;;;;;;23.21;46.76;100552.81;104363;1297;70020;-92
2023/06/29 07:35:47;;;;;;;;;;;;;;;23.20;46.86;100551.17;104197;1300;69905;-85
2023/06/29 07:38:12;;;;;;;;;;;;;;;23.21;46.87;100545.48;104427;1297;70165;-86
2023/06/29 07:40:38;;;;;;;;;;;;;;;23.21;46.89;100546.52;104211;1297;70081;-85
2023/06/29 07:43:03;;;;;;;;;;;;;;;23.24;46.76;100546.34;104289;1297;68427;-85
2023/06/29 07:45:29;;;;;;;;;;;;;;;23.26;46.75;100545.04;104252;1297;70196;-85
2023/06/29 07:47:54;;;;;;;;;;;;;;;23.29;46.80;100548.73;104143;1300;70000;-86
2023/06/29 07:50:20;;;;;;;;;;;;;;;23.31;46.85;100548.55;104620;1299;68778;-86
2023/06/29 07:52:45;;;;;;;;;;;;;;;23.33;46.74;100547.15;104349;1300;70062;-86
2023/06/29 07:55:11;;;;;;;;;;;;;;;23.33;46.66;100550.42;104458;1297;67996;-86
2023/06/29 07:57:36;;;;;;;;;;;;;;;23.29;46.57;100548.88;104310;1297;70624;-86
2023/06/29 08:02:42;;;;;;;;;;;;;;;23.20;46.65;100545.84;104602;1297;74615;-86
2023/06/29 08:05:08;;;;;;;;;;;;;;;23.21;46.68;100547.79;104294;1297;70216;-86
2023/06/29 08:07:33;;;;;;;;;;;;;;;23.24;46.66;100541.77;104449;1297;70088;-86
2023/06/29 08:10:07;;;;;;;;;;;;;;;23.26;46.63;100545.39;104221;1297;70095;-86
2023/06/29 08:12:32;;;;;;;;;;;;;;;23.29;46.63;100546.83;104408;1297;70077;-86
2023/06/29 08:15:10;;;;;;;;;;;;;;;23.31;46.46;100546.65;104420;1297;75482;-91
2023/06/29 08:17:35;;;;;;;;;;;;;;;23.32;46.44;100541.20;104456;1297;70067;-86
2023/06/29 08:20:01;;;;;;;;;;;;;;;23.31;46.36;100542.65;104256;1299;70007;-86
2023/06/29 08:22:26;;;;;;;;;;;;;;;23.31;46.41;100542.95;104199;1297;309133;-86
2023/06/29 08:24:52;;;;;;;;;;;;;;;23.31;46.25;100536.63;104277;1297;67972;-86
2023/06/29 08:27:19;;;;;;;;;;;;;;;23.32;46.31;100539.82;104601;1297;68142;-86
2023/06/29 08:29:44;;;;;;;;;;;;;;;23.33;46.26;100537.02;104387;1296;70057;-86
2023/06/29 08:32:10;;;;;;;;;;;;;;;23.35;46.15;100534.80;104497;1300;67999;-86
2023/06/29 08:34:35;;;;;;;;;;;;;;;23.37;46.27;100536.58;104504;1296;70045;-86
2023/06/29 08:37:01;;;;;;;;;;;;;;;23.39;46.18;100535.94;104681;1297;70035;-87
2023/06/29 08:39:26;;;;;;;;;;;;;;;23.41;46.05;100534.80;104579;1296;68348;-86
2023/06/29 08:44:26;;;;;;;;;;;;;;;23.45;45.94;100528.30;104490;1300;69948;-85
2023/06/29 08:46:51;;;;;;;;;;;;;;;23.47;45.84;100530.95;104476;1296;71986;-86
2023/06/29 08:49:17;;;;;;;;;;;;;;;23.49;45.89;100525.64;104463;1296;70024;-86
2023/06/29 08:51:43;;;;;;;;;;;;;;;23.49;45.78;100524.30;104406;1297;69974;-86
2023/06/29 08:54:09;;;;;;;;;;;;;;;23.50;45.70;100519.88;104460;1296;70185;-86
2023/06/29 08:56:35;;;;;;;;;;;;;;;23.51;45.55;100517.55;104410;1296;70044;-86
2023/06/29 08:59:00;;;;;;;;;;;;;;;23.51;45.50;100519.60;104720;1297;69854;-86
2023/06/29 09:01:26;;;;;;;;;;;;;;;23.51;45.25;100513.80;104367;1297;70147;-86
2023/06/29 09:03:51;;;;;;;;;;;;;;;23.51;45.26;100511.54;104479;1296;70090;-86
2023/06/29 09:06:17;;;;;;;;;;;;;;;23.52;45.00;100513.02;104538;1300;70027;-87
2023/06/29 09:11:16;;;;;;;;;;;;;;;23.54;44.81;100511.20;104628;1294;69939;-86
2023/06/29 09:13:42;;;;;;;;;;;;;;;23.56;44.81;100511.09;104404;1294;70096;-86
2023/06/29 09:16:08;;;;;;;;;;;;;;;23.58;44.71;100500.96;104480;1294;68004;-86
2023/06/29 09:18:34;;;;;;;;;;;;;;;23.59;44.72;100500.76;104413;1294;68172;-86
2023/06/29 09:20:59;;;;;;;;;;;;;;;23.60;44.62;100501.34;104423;1294;67882;-87
2023/06/29 09:23:31;;;;;;;;;;;;;;;23.61;44.66;100503.17;104448;1296;70044;-86
2023/06/29 09:25:56;;;;;;;;;;;;;;;23.64;44.64;100506.42;104319;1297;69979;-87
2023/06/29 09:28:22;;;;;;;;;;;;;;;23.66;44.62;100503.73;104483;1297;67787;-86
2023/06/29 09:30:49;;;;;;;;;;;;;;;23.68;44.52;100496.67;104649;1296;70094;-86
2023/06/29 09:33:15;;;;;;;;;;;;;;;23.69;44.45;100494.48;104392;1296;69984;-86
2023/06/29 09:35:53;;;;;;;;;;;;;;;23.71;44.37;100496.25;104332;1298;70042;-91
2023/06/29 09:38:18;;;;;;;;;;;;;;;23.70;44.23;100495.06;104361;1296;68085;-86
2023/06/29 09:40:48;;;;;;;;;;;;;;;23.71;44.13;100495.11;104346;1296;70019;-86
2023/06/29 09:43:17;;;;;;;;;;;;;;;23.72;44.08;100487.30;104339;1297;69981;-86
2023/06/29 09:45:43;;;;;;;;;;;;;;;23.72;44.07;100486.82;104432;1296;70098;-86
2023/06/29 09:48:11;;;;;;;;;;;;;;;23.73;43.98;100493.27;104498;1297;68542;-86
2023/06/29 09:53:11;;;;;;;;;;;;;;;23.76;43.82;100483.39;104491;1297;72741;-86
2023/06/29 09:55:38;;;;;;;;;;;;;;;23.77;43.85;100481.27;104343;1297;67750;-85
2023/06/29 09:58:03;;;;;;;;;;;;;;;23.78;43.78;100482.19;104190;1297;70167;-86
2023/06/29 10:00:29;;;;;;;;;;;;;;;23.79;43.68;100480.89;104281;1297;70030;-86
2023/06/29 10:02:55;;;;;;;;;;;;;;;23.79;43.60;100478.95;104493;1296;70032;-86
2023/06/29 10:05:21;;;;;;;;;;;;;;;23.79;43.45;100475.90;104476;1296;70066;-86
2023/06/29 10:07:46;;;;;;;;;;;;;;;23.80;43.42;100472.04;104465;1297;70112;-86
2023/06/29 10:10:13;;;;;;;;;;;;;;;23.81;43.14;100471.38;104317;1297;70084;-86
2023/06/29 10:12:39;;;;;;;;;;;;;;;23.82;43.31;100468.94;104409;1296;70041;-86
2023/06/29 10:15:09;;;;;;;;;;;;;;;23.82;43.09;100469.19;104294;1297;70099;-87
2023/06/29 10:17:46;;;;;;;;;;;;;;;23.82;43.12;100470.33;104492;1296;68101;-88
2023/06/29 10:20:12;;;;;;;;;;;;;;;23.83;43.11;100472.17;104201;1296;70102;-87
2023/06/29 10:22:37;;;;;;;;;;;;;;;23.81;42.96;100467.25;104226;1296;68047;-85
2023/06/29 10:25:04;;;;;;;;;;;;;;;23.79;42.92;100471.39;104214;1297;70067;-86
2023/06/29 10:27:30;;;;;;;;;;;;;;;23.79;42.78;100470.82;104438;1296;70015;-86
2023/06/29 10:29:55;;;;;;;;;;;;;;;23.80;42.76;100467.06;104281;1298;70437;-86
2023/06/29 10:32:41;;;;;;;;;;;;;;;23.80;42.67;100470.20;104436;1297;71202;-86
2023/06/29 10:35:13;;;;;;;;;;;;;;;23.81;42.63;100466.03;104379;1297;70001;-86
2023/06/29 10:37:40;;;;;;;;;;;;;;;23.83;42.52;100458.61;104488;1297;69853;-86
2023/06/29 10:40:18;;;;;;;;;;;;;;;23.84;42.40;100459.41;104450;1302;74331;-86
2023/06/29 10:42:48;;;;;;;;;;;;;;;23.85;42.33;100456.98;104320;1297;68418;-88
2023/06/29 10:45:21;;;;;;;;;;;;;;;23.85;42.14;100452.54;104330;1297;70133;-87
2023/06/29 10:47:56;;;;;;;;;;;;;;;23.85;42.15;100460.45;104355;1297;70274;-87
2023/06/29 10:50:37;;;;;;;;;;;;;;;23.85;42.12;100459.55;104334;1298;68112;-89
2023/06/29 10:53:05;;;;;;;;;;;;;;;23.82;41.97;100454.04;104236;1299;74525;-85
2023/06/29 10:55:41;;;;;;;;;;;;;;;23.79;41.96;100450.73;104612;1297;68447;-86
2023/06/29 10:58:28;;;;;;;;;;;;;;;23.77;41.98;100456.10;104315;1297;69985;-86
2023/06/29 11:00:55;;;;;;;;;;;;;;;23.77;41.92;100453.38;104313;1297;69914;-85
2023/06/29 11:03:21;;;;;;;;;;;;;;;23.76;41.84;100452.67;104461;1297;70041;-85
2023/06/29 11:05:46;;;;;;;;;;;;;;;23.77;41.74;100451.84;104491;1297;69901;-86
2023/06/29 11:08:12;;;;;;;;;;;;;;;23.74;41.69;100452.28;104469;1296;70026;-87
2023/06/29 11:10:37;;;;;;;;;;;;;;;23.74;41.69;100450.07;104351;1297;70081;-86
2023/06/29 11:13:06;;;;;;;;;;;;;;;23.74;41.81;100446.21;104655;1297;68885;-86
2023/06/29 11:15:32;;;;;;;;;;;;;;;23.76;41.76;100443.67;104511;1296;74321;-85
2023/06/29 11:17:58;;;;;;;;;;;;;;;23.77;41.71;100442.79;104528;1297;70248;-86
2023/06/29 11:20:29;;;;;;;;;;;;;;;23.78;41.68;100445.86;104344;1297;68790;-91
2023/06/29 11:22:57;;;;;;;;;;;;;;;23.78;41.74;100447.09;104301;1297;68046;-86
2023/06/29 11:25:22;;;;;;;;;;;;;;;23.79;41.63;100439.22;104583;1297;69859;-86
2023/06/29 11:27:47;;;;;;;;;;;;;;;23.80;41.57;100438.09;104355;1297;69941;-86
2023/06/29 11:30:13;;;;;;;;;;;;;;;23.80;41.77;100444.56;104409;1297;68084;-86
2023/06/29 11:32:39;;;;;;;;;;;;;;;23.80;41.52;100436.80;104454;1297;70359;-86
2023/06/29 11:35:08;;;;;;;;;;;;;;;23.80;41.50;100426.89;104347;1297;68141;-87
2023/06/29 11:37:35;;;;;;;;;;;;;;;23.79;41.53;100428.23;104636;1297;74636;-88
2023/06/29 11:40:07;;;;;;;;;;;;;;;23.79;41.42;100429.05;104450;1297;69873;-86
2023/06/29 11:42:32;;;;;;;;;;;;;;;23.80;41.30;100432.13;104699;1297;70021;-87
2023/06/29 11:45:02;;;;;;;;;;;;;;;23.80;41.14;100437.15;104519;1302;68906;-87
2023/06/29 11:47:28;;;;;;;;;;;;;;;23.81;41.23;100433.81;105066;1297;67846;-89
2023/06/29 11:49:59;;;;;;;;;;;;;;;23.82;41.22;100428.34;104289;1297;68935;-88
2023/06/29 11:52:30;;;;;;;;;;;;;;;23.84;41.21;100429.28;104384;1299;68088;-87
2023/06/29 11:54:56;;;;;;;;;;;;;;;23.87;41.15;100429.10;104504;1297;69936;-87
2023/06/29 11:57:22;;;;;;;;;;;;;;;23.89;41.08;100428.05;104466;1297;70010;-88
2023/06/29 11:59:47;;;;;;;;;;;;;;;23.90;41.15;100422.48;104470;1297;70033;-88
2023/06/29 12:02:23;;;;;;;;;;;;;;;23.91;40.97;100413.27;104444;1297;70127;-93
2023/06/29 12:04:57;;;;;;;;;;;;;;;23.92;41.00;100415.67;104263;1299;68795;-88
2023/06/29 12:07:39;;;;;;;;;;;;;;;23.94;41.04;100410.36;104383;1300;69927;-88
2023/06/29 12:10:06;;;;;;;;;;;;;;;23.95;40.77;100407.30;104471;1303;67788;-89
2023/06/29 12:12:38;;;;;;;;;;;;;;;23.97;40.82;100405.70;104419;1300;68312;-87
2023/06/29 12:15:11;;;;;;;;;;;;;;;23.99;40.85;100405.80;104512;1299;74491;-88
2023/06/29 12:17:42;;;;;;;;;;;;;;;24.01;40.97;100403.87;104150;1291;554264;-85
2023/06/29 12:20:20;;;;;;;;;;;;;;;24.02;40.78;100404.95;104582;1301;67565;-89
2023/06/29 12:25:32;;;;;;;;;;;;;;;24.05;40.84;100402.29;104189;1293;554137;-88
2023/06/29 12:27:57;;;;;;;;;;;;;;;24.05;40.72;100398.02;104338;1301;68103;-89
2023/06/29 12:30:23;;;;;;;;;;;;;;;24.05;40.56;100397.50;104308;1300;72199;-88
2023/06/29 12:32:49;;;;;;;;;;;;;;;24.06;40.50;100395.94;104348;1300;70384;-87
2023/06/29 12:35:15;;;;;;;;;;;;;;;24.06;40.54;100400.61;104334;1299;70093;-90
2023/06/29 12:37:40;;;;;;;;;;;;;;;24.07;40.50;100395.62;104227;1299;70087;-88
2023/06/29 12:40:06;;;;;;;;;;;;;;;24.08;40.35;100389.52;104671;1300;68124;-88
2023/06/29 12:42:35;;;;;;;;;;;;;;;24.09;40.28;100387.09;105451;1299;67506;-88
2023/06/29 12:45:01;;;;;;;;;;;;;;;24.10;40.01;100384.10;105227;1299;67623;-89
2023/06/29 12:47:27;;;;;;;;;;;;;;;24.11;40.13;100382.39;105106;1299;68057;-88
2023/06/29 12:49:53;;;;;;;;;;;;;;;24.12;40.05;100378.92;105098;1300;69254;-88
2023/06/29 12:52:22;;;;;;;;;;;;;;;24.13;40.11;100379.17;104635;1299;68821;-88
2023/06/29 12:54:55;;;;;;;;;;;;;;;24.15;39.90;100372.73;104470;1300;68930;-88
2023/06/29 12:57:26;;;;;;;;;;;;;;;24.17;39.85;100368.44;104268;1300;69970;-88